sensor_id;sensor_type;location;lat;lon;timestamp;pressure;altitude;pressure_sealevel;temperature;humidity
70011;BME280;59543;37.950;-122.338;2023-02-01T00:01:45;101871.25;;;14.23;24.87
70011;BME280;59543;37.950;-122.338;2023-02-01T00:04:11;101863.31;;;14.11;24.73
70011;BME280;59543;37.950;-122.338;2023-02-01T00:06:37;101866.44;;;14.07;24.79
70011;BME280;59543;37.950;-122.338;2023-02-01T00:09:03;101875.28;;;14.09;24.29
70011;BME280;59543;37.950;-122.338;2023-02-01T00:11:29;101871.59;;;13.90;25.17
70011;BME280;59543;37.950;-122.338;2023-02-01T00:13:54;101866.31;;;14.08;24.69
70011;BME280;59543;37.950;-122.338;2023-02-01T00:16:21;101876.16;;;13.80;25.34
70011;BME280;59543;37.950;-122.338;2023-02-01T00:18:49;101873.75;;;13.97;25.11
70011;BME280;59543;37.950;-122.338;2023-02-01T00:21:16;101869.88;;;13.80;25.07
70011;BME280;59543;37.950;-122.338;2023-02-01T00:23:42;101871.31;;;14.03;24.76
70011;BME280;59543;37.950;-122.338;2023-02-01T00:26:13;101871.00;;;13.87;25.17
70011;BME280;59543;37.950;-122.338;2023-02-01T00:28:40;101867.59;;;13.94;24.87
70011;BME280;59543;37.950;-122.338;2023-02-01T00:31:06;101863.50;;;13.90;25.63
70011;BME280;59543;37.950;-122.338;2023-02-01T00:33:32;101864.03;;;14.04;25.06
70011;BME280;59543;37.950;-122.338;2023-02-01T00:35:58;101858.38;;;13.87;25.19
70011;BME280;59543;37.950;-122.338;2023-02-01T00:38:25;101869.16;;;13.78;25.71
70011;BME280;59543;37.950;-122.338;2023-02-01T00:40:51;101870.47;;;13.54;26.24
70011;BME280;59543;37.950;-122.338;2023-02-01T00:43:17;101870.59;;;13.53;26.12
70011;BME280;59543;37.950;-122.338;2023-02-01T00:45:43;101870.59;;;13.43;26.31
70011;BME280;59543;37.950;-122.338;2023-02-01T00:48:08;101870.41;;;13.35;27.03
70011;BME280;59543;37.950;-122.338;2023-02-01T00:50:34;101870.88;;;13.40;26.62
70011;BME280;59543;37.950;-122.338;2023-02-01T00:53:00;101866.59;;;13.37;26.74
70011;BME280;59543;37.950;-122.338;2023-02-01T00:55:26;101867.09;;;13.21;27.20
70011;BME280;59543;37.950;-122.338;2023-02-01T00:57:52;101875.13;;;13.42;26.83
70011;BME280;59543;37.950;-122.338;2023-02-01T01:00:17;101875.53;;;13.28;27.34
70011;BME280;59543;37.950;-122.338;2023-02-01T01:02:43;101876.09;;;13.32;27.28
70011;BME280;59543;37.950;-122.338;2023-02-01T01:05:09;101878.31;;;13.17;28.57
70011;BME280;59543;37.950;-122.338;2023-02-01T01:07:35;101872.00;;;12.97;27.97
70011;BME280;59543;37.950;-122.338;2023-02-01T01:10:01;101880.50;;;12.92;28.27
70011;BME280;59543;37.950;-122.338;2023-02-01T01:12:27;101882.31;;;12.82;28.67
70011;BME280;59543;37.950;-122.338;2023-02-01T01:14:52;101878.59;;;12.73;29.37
70011;BME280;59543;37.950;-122.338;2023-02-01T01:17:18;101881.84;;;12.67;29.59
70011;BME280;59543;37.950;-122.338;2023-02-01T01:19:44;101884.66;;;12.66;30.35
70011;BME280;59543;37.950;-122.338;2023-02-01T01:22:10;101886.47;;;12.55;30.26
70011;BME280;59543;37.950;-122.338;2023-02-01T01:24:36;101892.47;;;12.38;31.61
70011;BME280;59543;37.950;-122.338;2023-02-01T01:27:02;101899.38;;;12.31;31.00
70011;BME280;59543;37.950;-122.338;2023-02-01T01:29:28;101904.84;;;12.20;31.68
70011;BME280;59543;37.950;-122.338;2023-02-01T01:31:54;101900.22;;;12.10;31.64
70011;BME280;59543;37.950;-122.338;2023-02-01T01:34:20;101912.06;;;11.98;32.04
70011;BME280;59543;37.950;-122.338;2023-02-01T01:36:46;101907.56;;;11.87;32.13
70011;BME280;59543;37.950;-122.338;2023-02-01T01:39:11;101915.53;;;11.78;32.53
70011;BME280;59543;37.950;-122.338;2023-02-01T01:41:37;101913.47;;;11.70;32.99
70011;BME280;59543;37.950;-122.338;2023-02-01T01:44:04;101919.63;;;11.61;33.76
70011;BME280;59543;37.950;-122.338;2023-02-01T01:46:31;101919.53;;;11.51;33.83
70011;BME280;59543;37.950;-122.338;2023-02-01T01:51:24;101921.28;;;11.30;34.73
70011;BME280;59543;37.950;-122.338;2023-02-01T01:53:55;101923.78;;;11.10;35.77
70011;BME280;59543;37.950;-122.338;2023-02-01T01:56:23;101924.97;;;10.95;36.58
70011;BME280;59543;37.950;-122.338;2023-02-01T01:58:51;101926.22;;;10.80;37.23
70011;BME280;59543;37.950;-122.338;2023-02-01T02:01:18;101938.56;;;10.71;37.45
70011;BME280;59543;37.950;-122.338;2023-02-01T02:03:44;101932.66;;;10.43;38.61
70011;BME280;59543;37.950;-122.338;2023-02-01T02:08:48;101941.84;;;9.93;40.90
70011;BME280;59543;37.950;-122.338;2023-02-01T02:11:14;101939.69;;;9.74;41.27
70011;BME280;59543;37.950;-122.338;2023-02-01T02:13:42;101938.38;;;9.55;41.47
70011;BME280;59543;37.950;-122.338;2023-02-01T02:26:34;101935.94;;;9.03;42.96
70011;BME280;59543;37.950;-122.338;2023-02-01T02:36:30;101939.06;;;8.71;44.33
70011;BME280;59543;37.950;-122.338;2023-02-01T02:44:30;101947.47;;;7.60;47.03
70011;BME280;59543;37.950;-122.338;2023-02-01T02:47:23;101951.38;;;7.27;48.06
70011;BME280;59543;37.950;-122.338;2023-02-01T02:49:58;101954.34;;;7.22;48.56
70011;BME280;59543;37.950;-122.338;2023-02-01T02:52:47;101959.38;;;7.41;48.03
70011;BME280;59543;37.950;-122.338;2023-02-01T02:55:34;101964.97;;;7.65;47.41
70011;BME280;59543;37.950;-122.338;2023-02-01T02:58:02;101963.91;;;7.68;47.13
70011;BME280;59543;37.950;-122.338;2023-02-01T03:00:47;101968.88;;;7.74;46.78
70011;BME280;59543;37.950;-122.338;2023-02-01T03:03:35;101976.31;;;7.42;48.17
70011;BME280;59543;37.950;-122.338;2023-02-01T03:06:19;101968.97;;;7.17;48.60
70011;BME280;59543;37.950;-122.338;2023-02-01T03:08:45;101970.41;;;6.94;49.36
70011;BME280;59543;37.950;-122.338;2023-02-01T03:11:14;101967.34;;;7.00;49.35
70011;BME280;59543;37.950;-122.338;2023-02-01T03:16:26;101977.38;;;7.25;49.22
70011;BME280;59543;37.950;-122.338;2023-02-01T03:21:26;101982.16;;;7.20;48.68
70011;BME280;59543;37.950;-122.338;2023-02-01T03:23:55;101981.97;;;7.08;49.19
70011;BME280;59543;37.950;-122.338;2023-02-01T03:26:23;101978.44;;;6.94;49.61
70011;BME280;59543;37.950;-122.338;2023-02-01T03:28:54;101977.00;;;6.59;50.24
70011;BME280;59543;37.950;-122.338;2023-02-01T03:31:22;101981.81;;;6.38;51.26
70011;BME280;59543;37.950;-122.338;2023-02-01T03:33:48;101986.38;;;6.81;49.83
70011;BME280;59543;37.950;-122.338;2023-02-01T03:39:09;101988.25;;;6.64;49.75
70011;BME280;59543;37.950;-122.338;2023-02-01T03:44:21;101992.41;;;6.40;50.99
70011;BME280;59543;37.950;-122.338;2023-02-01T03:49:18;101997.16;;;6.05;51.77
70011;BME280;59543;37.950;-122.338;2023-02-01T03:51:46;101994.13;;;5.95;51.56
70011;BME280;59543;37.950;-122.338;2023-02-01T03:54:13;101993.53;;;5.74;52.32
70011;BME280;59543;37.950;-122.338;2023-02-01T03:56:41;101994.81;;;5.67;52.92
70011;BME280;59543;37.950;-122.338;2023-02-01T03:59:09;101996.47;;;5.54;52.56
70011;BME280;59543;37.950;-122.338;2023-02-01T04:01:35;101995.88;;;5.48;52.30
70011;BME280;59543;37.950;-122.338;2023-02-01T04:04:01;101998.53;;;5.48;52.16
70011;BME280;59543;37.950;-122.338;2023-02-01T04:06:27;102002.22;;;5.46;52.21
70011;BME280;59543;37.950;-122.338;2023-02-01T04:08:53;102002.28;;;5.44;52.46
70011;BME280;59543;37.950;-122.338;2023-02-01T04:11:19;101997.13;;;5.41;52.54
70011;BME280;59543;37.950;-122.338;2023-02-01T04:13:44;102006.88;;;5.26;52.51
70011;BME280;59543;37.950;-122.338;2023-02-01T04:16:10;102005.13;;;5.25;52.81
70011;BME280;59543;37.950;-122.338;2023-02-01T04:18:36;102005.47;;;5.19;52.27
70011;BME280;59543;37.950;-122.338;2023-02-01T04:21:02;102008.13;;;5.19;53.24
70011;BME280;59543;37.950;-122.338;2023-02-01T04:23:28;102009.84;;;5.20;52.96
70011;BME280;59543;37.950;-122.338;2023-02-01T04:25:58;102005.41;;;5.21;52.86
70011;BME280;59543;37.950;-122.338;2023-02-01T04:28:24;102007.09;;;5.22;52.75
70011;BME280;59543;37.950;-122.338;2023-02-01T04:30:50;102013.91;;;5.27;52.57
70011;BME280;59543;37.950;-122.338;2023-02-01T04:33:16;102020.78;;;5.32;52.45
70011;BME280;59543;37.950;-122.338;2023-02-01T04:35:42;102013.75;;;5.31;52.27
70011;BME280;59543;37.950;-122.338;2023-02-01T04:38:08;102022.88;;;5.42;52.42
70011;BME280;59543;37.950;-122.338;2023-02-01T04:40:33;102017.56;;;5.42;51.83
70011;BME280;59543;37.950;-122.338;2023-02-01T04:43:02;102016.69;;;5.42;52.27
70011;BME280;59543;37.950;-122.338;2023-02-01T04:45:29;102023.47;;;5.32;52.22
70011;BME280;59543;37.950;-122.338;2023-02-01T04:47:54;102017.22;;;5.33;52.01
70011;BME280;59543;37.950;-122.338;2023-02-01T04:50:20;102015.13;;;5.38;52.17
70011;BME280;59543;37.950;-122.338;2023-02-01T04:52:46;102021.69;;;5.48;52.12
70011;BME280;59543;37.950;-122.338;2023-02-01T04:55:12;102019.09;;;5.31;51.64
70011;BME280;59543;37.950;-122.338;2023-02-01T04:57:41;102013.06;;;5.27;52.12
70011;BME280;59543;37.950;-122.338;2023-02-01T05:00:07;102010.34;;;5.60;51.08
70011;BME280;59543;37.950;-122.338;2023-02-01T05:02:34;102013.06;;;5.43;50.79
70011;BME280;59543;37.950;-122.338;2023-02-01T05:05:00;102020.13;;;5.44;51.39
70011;BME280;59543;37.950;-122.338;2023-02-01T05:07:26;102014.53;;;5.33;50.88
70011;BME280;59543;37.950;-122.338;2023-02-01T05:09:52;102016.31;;;5.32;50.79
70011;BME280;59543;37.950;-122.338;2023-02-01T05:12:18;102020.03;;;5.30;50.68
70011;BME280;59543;37.950;-122.338;2023-02-01T05:15:02;102022.78;;;5.28;51.06
70011;BME280;59543;37.950;-122.338;2023-02-01T05:17:27;102017.72;;;5.23;51.04
70011;BME280;59543;37.950;-122.338;2023-02-01T05:19:53;102024.06;;;5.21;50.96
70011;BME280;59543;37.950;-122.338;2023-02-01T05:22:19;102020.00;;;5.14;52.08
70011;BME280;59543;37.950;-122.338;2023-02-01T05:24:45;102022.91;;;5.09;51.61
70011;BME280;59543;37.950;-122.338;2023-02-01T05:27:11;102029.66;;;4.99;52.15
70011;BME280;59543;37.950;-122.338;2023-02-01T05:29:37;102028.75;;;5.00;51.41
70011;BME280;59543;37.950;-122.338;2023-02-01T05:32:02;102029.13;;;4.92;51.71
70011;BME280;59543;37.950;-122.338;2023-02-01T05:34:28;102030.50;;;4.66;51.48
70011;BME280;59543;37.950;-122.338;2023-02-01T05:36:54;102025.25;;;4.65;52.28
70011;BME280;59543;37.950;-122.338;2023-02-01T05:39:20;102029.50;;;4.51;52.73
70011;BME280;59543;37.950;-122.338;2023-02-01T05:41:46;102037.56;;;4.67;52.66
70011;BME280;59543;37.950;-122.338;2023-02-01T05:44:12;102035.06;;;4.64;52.14
70011;BME280;59543;37.950;-122.338;2023-02-01T05:46:38;102035.28;;;4.59;52.47
70011;BME280;59543;37.950;-122.338;2023-02-01T05:49:04;102044.84;;;4.64;51.79
70011;BME280;59543;37.950;-122.338;2023-02-01T05:51:30;102042.34;;;4.61;51.51
70011;BME280;59543;37.950;-122.338;2023-02-01T05:53:55;102049.25;;;4.65;52.35
70011;BME280;59543;37.950;-122.338;2023-02-01T05:56:21;102043.97;;;4.63;52.17
70011;BME280;59543;37.950;-122.338;2023-02-01T05:58:47;102037.66;;;4.48;53.39
70011;BME280;59543;37.950;-122.338;2023-02-01T06:01:13;102048.22;;;4.50;52.53
70011;BME280;59543;37.950;-122.338;2023-02-01T06:03:39;102044.91;;;4.45;52.33
70011;BME280;59543;37.950;-122.338;2023-02-01T06:06:05;102046.38;;;4.33;53.44
70011;BME280;59543;37.950;-122.338;2023-02-01T06:08:31;102051.97;;;4.28;52.79
70011;BME280;59543;37.950;-122.338;2023-02-01T06:11:06;102052.91;;;4.27;52.91
70011;BME280;59543;37.950;-122.338;2023-02-01T06:13:32;102049.00;;;3.98;53.65
70011;BME280;59543;37.950;-122.338;2023-02-01T06:15:58;102049.38;;;3.72;54.81
70011;BME280;59543;37.950;-122.338;2023-02-01T06:18:24;102058.09;;;3.56;54.87
70011;BME280;59543;37.950;-122.338;2023-02-01T06:20:54;102049.53;;;3.50;56.01
70011;BME280;59543;37.950;-122.338;2023-02-01T06:23:20;102048.69;;;3.49;56.03
70011;BME280;59543;37.950;-122.338;2023-02-01T06:25:52;102053.63;;;3.38;56.86
70011;BME280;59543;37.950;-122.338;2023-02-01T06:28:17;102045.94;;;3.51;56.83
70011;BME280;59543;37.950;-122.338;2023-02-01T06:30:43;102044.78;;;3.75;55.86
70011;BME280;59543;37.950;-122.338;2023-02-01T06:33:14;102045.50;;;3.79;56.00
70011;BME280;59543;37.950;-122.338;2023-02-01T06:35:42;102043.25;;;3.70;55.11
70011;BME280;59543;37.950;-122.338;2023-02-01T06:38:12;102038.88;;;3.87;53.98
70011;BME280;59543;37.950;-122.338;2023-02-01T06:40:38;102044.25;;;4.05;53.47
70011;BME280;59543;37.950;-122.338;2023-02-01T06:43:04;102034.53;;;4.04;53.71
70011;BME280;59543;37.950;-122.338;2023-02-01T06:45:30;102041.66;;;4.03;52.79
70011;BME280;59543;37.950;-122.338;2023-02-01T06:47:56;102036.66;;;3.97;53.01
70011;BME280;59543;37.950;-122.338;2023-02-01T06:50:22;102039.31;;;3.97;52.58
70011;BME280;59543;37.950;-122.338;2023-02-01T06:52:48;102033.88;;;3.99;53.08
70011;BME280;59543;37.950;-122.338;2023-02-01T06:55:14;102041.88;;;3.99;52.50
70011;BME280;59543;37.950;-122.338;2023-02-01T06:57:40;102037.81;;;3.73;53.61
70011;BME280;59543;37.950;-122.338;2023-02-01T07:00:06;102039.00;;;3.84;53.69
70011;BME280;59543;37.950;-122.338;2023-02-01T07:02:31;102037.44;;;3.80;53.19
70011;BME280;59543;37.950;-122.338;2023-02-01T07:04:57;102039.38;;;3.58;52.69
70011;BME280;59543;37.950;-122.338;2023-02-01T07:07:23;102044.94;;;3.53;53.17
70011;BME280;59543;37.950;-122.338;2023-02-01T07:09:49;102051.78;;;3.59;52.95
70011;BME280;59543;37.950;-122.338;2023-02-01T07:12:15;102055.84;;;3.66;53.15
70011;BME280;59543;37.950;-122.338;2023-02-01T07:14:41;102056.38;;;3.74;52.99
70011;BME280;59543;37.950;-122.338;2023-02-01T07:17:07;102064.13;;;3.79;52.79
70011;BME280;59543;37.950;-122.338;2023-02-01T07:19:32;102065.56;;;3.86;52.87
70011;BME280;59543;37.950;-122.338;2023-02-01T07:21:58;102067.00;;;3.74;53.43
70011;BME280;59543;37.950;-122.338;2023-02-01T07:24:24;102068.16;;;3.69;53.65
70011;BME280;59543;37.950;-122.338;2023-02-01T07:26:50;102063.78;;;3.67;53.91
70011;BME280;59543;37.950;-122.338;2023-02-01T07:29:19;102064.50;;;3.52;54.25
70011;BME280;59543;37.950;-122.338;2023-02-01T07:31:46;102059.25;;;3.51;54.46
70011;BME280;59543;37.950;-122.338;2023-02-01T07:34:11;102060.91;;;3.53;54.71
70011;BME280;59543;37.950;-122.338;2023-02-01T07:36:37;102061.72;;;3.55;54.79
70011;BME280;59543;37.950;-122.338;2023-02-01T07:39:03;102055.63;;;3.33;55.71
70011;BME280;59543;37.950;-122.338;2023-02-01T07:41:29;102062.03;;;3.29;56.04
70011;BME280;59543;37.950;-122.338;2023-02-01T07:43:55;102054.81;;;3.31;56.02
70011;BME280;59543;37.950;-122.338;2023-02-01T07:46:22;102055.34;;;3.39;55.21
70011;BME280;59543;37.950;-122.338;2023-02-01T07:48:48;102054.22;;;3.44;55.04
70011;BME280;59543;37.950;-122.338;2023-02-01T07:51:14;102053.41;;;3.42;55.23
70011;BME280;59543;37.950;-122.338;2023-02-01T07:53:40;102046.16;;;3.46;54.98
70011;BME280;59543;37.950;-122.338;2023-02-01T07:56:13;102044.09;;;3.53;54.49
70011;BME280;59543;37.950;-122.338;2023-02-01T07:58:39;102048.47;;;3.54;53.84
70011;BME280;59543;37.950;-122.338;2023-02-01T08:01:05;102050.53;;;3.47;53.96
70011;BME280;59543;37.950;-122.338;2023-02-01T08:03:49;102058.25;;;3.53;53.59
70011;BME280;59543;37.950;-122.338;2023-02-01T08:06:15;102060.97;;;3.52;54.15
70011;BME280;59543;37.950;-122.338;2023-02-01T08:08:41;102064.41;;;3.54;53.48
70011;BME280;59543;37.950;-122.338;2023-02-01T08:11:10;102059.03;;;3.55;53.42
70011;BME280;59543;37.950;-122.338;2023-02-01T08:13:36;102066.75;;;3.61;53.21
70011;BME280;59543;37.950;-122.338;2023-02-01T08:16:03;102059.63;;;3.62;53.08
70011;BME280;59543;37.950;-122.338;2023-02-01T08:18:30;102056.88;;;3.63;53.92
70011;BME280;59543;37.950;-122.338;2023-02-01T08:20:56;102058.47;;;3.67;53.60
70011;BME280;59543;37.950;-122.338;2023-02-01T08:23:22;102058.81;;;3.60;54.71
70011;BME280;59543;37.950;-122.338;2023-02-01T08:25:48;102056.28;;;3.57;54.10
70011;BME280;59543;37.950;-122.338;2023-02-01T08:28:14;102048.41;;;3.55;54.61
70011;BME280;59543;37.950;-122.338;2023-02-01T08:30:40;102054.78;;;3.51;55.18
70011;BME280;59543;37.950;-122.338;2023-02-01T08:33:09;102050.41;;;3.50;54.91
70011;BME280;59543;37.950;-122.338;2023-02-01T08:35:35;102048.88;;;3.44;54.90
70011;BME280;59543;37.950;-122.338;2023-02-01T08:38:02;102048.09;;;3.42;55.63
70011;BME280;59543;37.950;-122.338;2023-02-01T08:40:27;102040.84;;;3.46;55.75
70011;BME280;59543;37.950;-122.338;2023-02-01T08:42:54;102041.75;;;3.64;57.18
70011;BME280;59543;37.950;-122.338;2023-02-01T08:45:24;102049.53;;;3.50;57.62
70011;BME280;59543;37.950;-122.338;2023-02-01T08:47:51;102038.69;;;3.35;58.43
70011;BME280;59543;37.950;-122.338;2023-02-01T08:50:17;102042.34;;;3.33;57.99
70011;BME280;59543;37.950;-122.338;2023-02-01T08:52:43;102039.25;;;3.23;58.63
70011;BME280;59543;37.950;-122.338;2023-02-01T08:55:09;102033.63;;;3.29;58.74
70011;BME280;59543;37.950;-122.338;2023-02-01T08:57:35;102028.19;;;3.32;58.68
70011;BME280;59543;37.950;-122.338;2023-02-01T09:00:02;102026.09;;;3.20;58.21
70011;BME280;59543;37.950;-122.338;2023-02-01T09:02:28;102034.19;;;3.17;58.00
70011;BME280;59543;37.950;-122.338;2023-02-01T09:04:55;102031.31;;;3.21;58.01
70011;BME280;59543;37.950;-122.338;2023-02-01T09:07:21;102037.16;;;3.30;57.98
70011;BME280;59543;37.950;-122.338;2023-02-01T09:09:47;102035.59;;;3.26;58.48
70011;BME280;59543;37.950;-122.338;2023-02-01T09:12:13;102019.13;;;3.55;60.21
70011;BME280;59543;37.950;-122.338;2023-02-01T09:14:39;102023.81;;;3.50;60.47
70011;BME280;59543;37.950;-122.338;2023-02-01T09:17:04;102026.09;;;3.20;61.93
70011;BME280;59543;37.950;-122.338;2023-02-01T09:19:31;102023.63;;;3.15;62.31
70011;BME280;59543;37.950;-122.338;2023-02-01T09:21:57;102029.81;;;3.16;61.74
70011;BME280;59543;37.950;-122.338;2023-02-01T09:24:23;102031.72;;;2.93;62.68
70011;BME280;59543;37.950;-122.338;2023-02-01T09:26:49;102028.75;;;2.81;63.47
70011;BME280;59543;37.950;-122.338;2023-02-01T09:29:15;102028.41;;;2.68;63.85
70011;BME280;59543;37.950;-122.338;2023-02-01T09:31:41;102028.28;;;2.71;64.33
70011;BME280;59543;37.950;-122.338;2023-02-01T09:34:07;102030.25;;;2.86;64.10
70011;BME280;59543;37.950;-122.338;2023-02-01T09:36:33;102031.97;;;2.87;63.30
70011;BME280;59543;37.950;-122.338;2023-02-01T09:38:59;102029.19;;;2.90;63.17
70011;BME280;59543;37.950;-122.338;2023-02-01T09:47:04;102040.94;;;2.85;63.91
70011;BME280;59543;37.950;-122.338;2023-02-01T09:49:37;102044.41;;;2.87;63.63
70011;BME280;59543;37.950;-122.338;2023-02-01T09:52:07;102033.66;;;2.69;64.20
70011;BME280;59543;37.950;-122.338;2023-02-01T09:54:40;102034.22;;;2.56;65.06
70011;BME280;59543;37.950;-122.338;2023-02-01T09:57:13;102037.03;;;2.52;64.85
70011;BME280;59543;37.950;-122.338;2023-02-01T09:59:50;102039.31;;;2.62;64.79
70011;BME280;59543;37.950;-122.338;2023-02-01T10:02:19;102042.75;;;2.64;63.97
70011;BME280;59543;37.950;-122.338;2023-02-01T10:04:46;102043.34;;;2.50;64.86
70011;BME280;59543;37.950;-122.338;2023-02-01T10:20:03;102040.22;;;2.61;64.39
70011;BME280;59543;37.950;-122.338;2023-02-01T10:22:44;102043.34;;;2.50;64.55
70011;BME280;59543;37.950;-122.338;2023-02-01T10:27:36;102039.34;;;2.40;65.10
70011;BME280;59543;37.950;-122.338;2023-02-01T10:32:38;102026.66;;;2.46;64.61
70011;BME280;59543;37.950;-122.338;2023-02-01T10:35:13;102033.00;;;2.22;65.59
70011;BME280;59543;37.950;-122.338;2023-02-01T10:37:40;102036.63;;;2.41;65.37
70011;BME280;59543;37.950;-122.338;2023-02-01T10:40:23;102030.06;;;2.50;65.16
70011;BME280;59543;37.950;-122.338;2023-02-01T10:42:53;102027.59;;;2.45;65.15
70011;BME280;59543;37.950;-122.338;2023-02-01T10:45:20;102032.38;;;2.58;64.83
70011;BME280;59543;37.950;-122.338;2023-02-01T10:47:51;102031.06;;;2.47;64.71
70011;BME280;59543;37.950;-122.338;2023-02-01T10:50:20;102033.91;;;2.63;64.23
70011;BME280;59543;37.950;-122.338;2023-02-01T10:52:52;102036.25;;;2.50;64.51
70011;BME280;59543;37.950;-122.338;2023-02-01T10:55:31;102032.59;;;2.53;64.26
70011;BME280;59543;37.950;-122.338;2023-02-01T10:57:58;102028.69;;;2.62;64.12
70011;BME280;59543;37.950;-122.338;2023-02-01T11:00:25;102035.16;;;2.55;64.07
70011;BME280;59543;37.950;-122.338;2023-02-01T11:02:51;102033.44;;;2.33;64.64
70011;BME280;59543;37.950;-122.338;2023-02-01T11:05:16;102037.19;;;2.27;64.91
70011;BME280;59543;37.950;-122.338;2023-02-01T11:07:50;102037.22;;;2.48;64.19
70011;BME280;59543;37.950;-122.338;2023-02-01T11:10:39;102048.16;;;2.40;65.01
70011;BME280;59543;37.950;-122.338;2023-02-01T11:13:11;102046.88;;;2.50;64.62
70011;BME280;59543;37.950;-122.338;2023-02-01T11:15:38;102039.28;;;2.41;64.92
70011;BME280;59543;37.950;-122.338;2023-02-01T11:18:16;102037.66;;;2.17;65.23
70011;BME280;59543;37.950;-122.338;2023-02-01T11:20:42;102028.97;;;1.91;66.51
70011;BME280;59543;37.950;-122.338;2023-02-01T11:23:17;102020.38;;;1.85;66.28
70011;BME280;59543;37.950;-122.338;2023-02-01T11:28:15;102030.38;;;2.00;66.72
70011;BME280;59543;37.950;-122.338;2023-02-01T11:30:42;102026.19;;;1.94;65.81
70011;BME280;59543;37.950;-122.338;2023-02-01T11:33:14;102026.91;;;1.98;66.56
70011;BME280;59543;37.950;-122.338;2023-02-01T11:35:41;102025.75;;;1.83;66.49
70011;BME280;59543;37.950;-122.338;2023-02-01T11:38:30;102027.84;;;1.75;66.63
70011;BME280;59543;37.950;-122.338;2023-02-01T11:41:20;102027.22;;;1.68;67.11
70011;BME280;59543;37.950;-122.338;2023-02-01T11:43:50;102027.28;;;1.67;67.26
70011;BME280;59543;37.950;-122.338;2023-02-01T11:46:17;102028.63;;;1.77;67.22
70011;BME280;59543;37.950;-122.338;2023-02-01T11:48:50;102040.50;;;1.90;66.70
70011;BME280;59543;37.950;-122.338;2023-02-01T11:51:32;102041.16;;;1.73;66.79
70011;BME280;59543;37.950;-122.338;2023-02-01T11:54:08;102035.41;;;1.62;66.76
70011;BME280;59543;37.950;-122.338;2023-02-01T11:56:55;102040.66;;;1.64;67.26
70011;BME280;59543;37.950;-122.338;2023-02-01T12:02:03;102034.94;;;1.74;67.11
70011;BME280;59543;37.950;-122.338;2023-02-01T12:18:01;102032.94;;;1.57;67.07
70011;BME280;59543;37.950;-122.338;2023-02-01T12:23:16;102026.25;;;1.47;67.29
70011;BME280;59543;37.950;-122.338;2023-02-01T12:31:30;102041.81;;;1.56;66.88
70011;BME280;59543;37.950;-122.338;2023-02-01T12:41:20;102046.69;;;1.45;67.03
70011;BME280;59543;37.950;-122.338;2023-02-01T12:43:52;102044.53;;;1.31;67.31
70011;BME280;59543;37.950;-122.338;2023-02-01T12:49:10;102043.97;;;1.23;68.46
70011;BME280;59543;37.950;-122.338;2023-02-01T12:51:39;102046.28;;;1.32;67.75
70011;BME280;59543;37.950;-122.338;2023-02-01T12:54:18;102044.16;;;1.19;67.91
70011;BME280;59543;37.950;-122.338;2023-02-01T12:57:05;102041.84;;;1.33;67.81
70011;BME280;59543;37.950;-122.338;2023-02-01T12:59:36;102039.72;;;1.43;67.47
70011;BME280;59543;37.950;-122.338;2023-02-01T13:02:25;102041.00;;;1.32;67.94
70011;BME280;59543;37.950;-122.338;2023-02-01T13:07:34;102043.63;;;1.32;67.54
70011;BME280;59543;37.950;-122.338;2023-02-01T13:10:07;102048.00;;;1.57;67.09
70011;BME280;59543;37.950;-122.338;2023-02-01T13:12:40;102046.78;;;1.66;67.00
70011;BME280;59543;37.950;-122.338;2023-02-01T13:15:16;102052.78;;;1.47;66.60
70011;BME280;59543;37.950;-122.338;2023-02-01T13:17:43;102048.75;;;1.37;67.31
70011;BME280;59543;37.950;-122.338;2023-02-01T13:20:25;102055.22;;;1.30;67.44
70011;BME280;59543;37.950;-122.338;2023-02-01T13:22:59;102057.56;;;1.37;67.36
70011;BME280;59543;37.950;-122.338;2023-02-01T13:27:53;102064.78;;;1.57;67.13
70011;BME280;59543;37.950;-122.338;2023-02-01T13:43:48;102055.88;;;1.35;68.78
70011;BME280;59543;37.950;-122.338;2023-02-01T13:46:15;102054.44;;;1.73;67.68
70011;BME280;59543;37.950;-122.338;2023-02-01T13:48:49;102062.75;;;1.64;67.24
70011;BME280;59543;37.950;-122.338;2023-02-01T13:51:16;102057.78;;;1.78;67.09
70011;BME280;59543;37.950;-122.338;2023-02-01T13:53:45;102066.19;;;1.90;66.53
70011;BME280;59543;37.950;-122.338;2023-02-01T13:56:13;102074.75;;;1.51;67.49
70011;BME280;59543;37.950;-122.338;2023-02-01T13:58:42;102074.69;;;1.52;67.64
70011;BME280;59543;37.950;-122.338;2023-02-01T14:03:44;102074.75;;;1.51;68.04
70011;BME280;59543;37.950;-122.338;2023-02-01T14:06:18;102075.50;;;1.78;67.10
70011;BME280;59543;37.950;-122.338;2023-02-01T14:08:44;102068.56;;;1.74;67.21
70011;BME280;59543;37.950;-122.338;2023-02-01T14:11:53;102066.13;;;1.68;67.71
70011;BME280;59543;37.950;-122.338;2023-02-01T14:14:37;102060.09;;;1.64;67.67
70011;BME280;59543;37.950;-122.338;2023-02-01T14:19:28;102065.06;;;1.95;66.54
70011;BME280;59543;37.950;-122.338;2023-02-01T14:21:55;102068.84;;;1.90;66.15
70011;BME280;59543;37.950;-122.338;2023-02-01T14:24:26;102071.91;;;2.23;65.23
70011;BME280;59543;37.950;-122.338;2023-02-01T14:26:53;102078.25;;;2.19;65.51
70011;BME280;59543;37.950;-122.338;2023-02-01T14:34:15;102082.41;;;2.26;65.01
70011;BME280;59543;37.950;-122.338;2023-02-01T14:37:04;102088.81;;;2.42;64.42
70011;BME280;59543;37.950;-122.338;2023-02-01T14:39:35;102087.25;;;2.37;64.57
70011;BME280;59543;37.950;-122.338;2023-02-01T14:42:14;102085.44;;;2.39;64.73
70011;BME280;59543;37.950;-122.338;2023-02-01T14:44:41;102088.38;;;2.31;64.99
70011;BME280;59543;37.950;-122.338;2023-02-01T14:49:54;102098.06;;;2.54;64.49